sensor_id;sensor_type;location;lat;lon;timestamp;P1;durP1;ratioP1;P2;durP2;ratioP2
76073;SDS011;64776;42.636;24.358;2023-05-01T00:00:47;47.85;;;22.13;;
76073;SDS011;64776;42.636;24.358;2023-05-01T00:03:48;40.28;;;19.00;;
76073;SDS011;64776;42.636;24.358;2023-05-01T00:06:49;35.10;;;17.40;;
76073;SDS011;64776;42.636;24.358;2023-05-01T00:09:50;22.85;;;12.77;;
76073;SDS011;64776;42.636;24.358;2023-05-01T00:12:52;23.25;;;10.88;;
76073;SDS011;64776;42.636;24.358;2023-05-01T00:15:53;26.98;;;10.27;;
76073;SDS011;64776;42.636;24.358;2023-05-01T00:18:54;20.83;;;11.32;;
76073;SDS011;64776;42.636;24.358;2023-05-01T00:21:54;26.85;;;13.60;;
76073;SDS011;64776;42.636;24.358;2023-05-01T00:24:55;31.10;;;14.45;;
76073;SDS011;64776;42.636;24.358;2023-05-01T00:27:57;30.20;;;13.47;;
76073;SDS011;64776;42.636;24.358;2023-05-01T00:30:58;35.78;;;16.23;;
76073;SDS011;64776;42.636;24.358;2023-05-01T00:33:59;24.70;;;10.45;;
76073;SDS011;64776;42.636;24.358;2023-05-01T00:37:00;37.65;;;16.10;;
76073;SDS011;64776;42.636;24.358;2023-05-01T00:40:00;22.80;;;10.80;;
76073;SDS011;64776;42.636;24.358;2023-05-01T00:43:03;22.50;;;9.98;;
76073;SDS011;64776;42.636;24.358;2023-05-01T00:46:03;15.32;;;7.10;;
76073;SDS011;64776;42.636;24.358;2023-05-01T00:49:04;16.38;;;8.75;;
76073;SDS011;64776;42.636;24.358;2023-05-01T00:52:05;26.92;;;9.98;;
76073;SDS011;64776;42.636;24.358;2023-05-01T00:55:06;22.92;;;10.65;;
76073;SDS011;64776;42.636;24.358;2023-05-01T00:58:09;26.90;;;10.85;;
76073;SDS011;64776;42.636;24.358;2023-05-01T01:01:11;19.58;;;9.68;;
76073;SDS011;64776;42.636;24.358;2023-05-01T01:04:12;53.05;;;29.23;;
76073;SDS011;64776;42.636;24.358;2023-05-01T01:07:14;40.67;;;21.52;;
76073;SDS011;64776;42.636;24.358;2023-05-01T01:10:22;24.30;;;12.48;;
76073;SDS011;64776;42.636;24.358;2023-05-01T01:13:31;20.02;;;9.50;;
76073;SDS011;64776;42.636;24.358;2023-05-01T01:16:42;44.75;;;25.92;;
76073;SDS011;64776;42.636;24.358;2023-05-01T01:27:17;44.75;;;20.20;;
76073;SDS011;64776;42.636;24.358;2023-05-01T01:30:34;35.67;;;18.27;;
76073;SDS011;64776;42.636;24.358;2023-05-01T01:37:15;46.22;;;19.02;;
76073;SDS011;64776;42.636;24.358;2023-05-01T01:40:21;48.22;;;23.08;;
76073;SDS011;64776;42.636;24.358;2023-05-01T01:43:24;47.97;;;22.08;;
76073;SDS011;64776;42.636;24.358;2023-05-01T01:46:28;32.85;;;15.20;;
76073;SDS011;64776;42.636;24.358;2023-05-01T01:49:34;22.00;;;12.18;;
76073;SDS011;64776;42.636;24.358;2023-05-01T01:52:39;23.48;;;11.50;;
76073;SDS011;64776;42.636;24.358;2023-05-01T01:55:44;24.63;;;10.63;;
76073;SDS011;64776;42.636;24.358;2023-05-01T01:58:47;20.15;;;9.63;;
76073;SDS011;64776;42.636;24.358;2023-05-01T02:01:51;25.63;;;13.90;;
76073;SDS011;64776;42.636;24.358;2023-05-01T02:04:56;45.30;;;20.80;;
76073;SDS011;64776;42.636;24.358;2023-05-01T02:07:58;28.55;;;14.93;;
76073;SDS011;64776;42.636;24.358;2023-05-01T02:11:01;32.65;;;15.95;;
76073;SDS011;64776;42.636;24.358;2023-05-01T02:14:03;27.52;;;14.32;;
76073;SDS011;64776;42.636;24.358;2023-05-01T02:17:05;35.50;;;14.77;;
76073;SDS011;64776;42.636;24.358;2023-05-01T02:20:10;25.35;;;12.40;;
76073;SDS011;64776;42.636;24.358;2023-05-01T02:23:12;24.70;;;12.77;;
76073;SDS011;64776;42.636;24.358;2023-05-01T02:26:15;23.33;;;11.10;;
76073;SDS011;64776;42.636;24.358;2023-05-01T02:29:17;26.63;;;12.25;;
76073;SDS011;64776;42.636;24.358;2023-05-01T02:32:18;41.45;;;31.85;;
76073;SDS011;64776;42.636;24.358;2023-05-01T02:35:20;22.50;;;11.73;;
76073;SDS011;64776;42.636;24.358;2023-05-01T02:38:21;25.88;;;12.00;;
76073;SDS011;64776;42.636;24.358;2023-05-01T02:41:22;20.80;;;10.38;;
76073;SDS011;64776;42.636;24.358;2023-05-01T02:44:25;14.15;;;7.35;;
76073;SDS011;64776;42.636;24.358;2023-05-01T02:47:28;22.23;;;9.25;;
76073;SDS011;64776;42.636;24.358;2023-05-01T02:50:33;25.10;;;11.55;;
76073;SDS011;64776;42.636;24.358;2023-05-01T02:53:35;23.98;;;10.43;;
76073;SDS011;64776;42.636;24.358;2023-05-01T02:56:36;17.80;;;8.23;;
76073;SDS011;64776;42.636;24.358;2023-05-01T02:59:37;15.48;;;7.97;;
76073;SDS011;64776;42.636;24.358;2023-05-01T03:02:38;14.38;;;6.05;;
76073;SDS011;64776;42.636;24.358;2023-05-01T03:05:40;13.57;;;6.40;;
76073;SDS011;64776;42.636;24.358;2023-05-01T03:08:42;22.75;;;11.70;;
76073;SDS011;64776;42.636;24.358;2023-05-01T03:11:43;23.75;;;14.48;;
76073;SDS011;64776;42.636;24.358;2023-05-01T03:14:47;32.10;;;15.23;;
76073;SDS011;64776;42.636;24.358;2023-05-01T03:17:48;35.05;;;16.60;;
76073;SDS011;64776;42.636;24.358;2023-05-01T03:20:53;38.05;;;17.23;;
76073;SDS011;64776;42.636;24.358;2023-05-01T03:26:55;23.33;;;10.68;;
76073;SDS011;64776;42.636;24.358;2023-05-01T03:29:55;32.15;;;14.20;;
76073;SDS011;64776;42.636;24.358;2023-05-01T03:32:56;34.15;;;16.13;;
76073;SDS011;64776;42.636;24.358;2023-05-01T03:36:02;32.58;;;16.83;;
76073;SDS011;64776;42.636;24.358;2023-05-01T03:39:04;39.30;;;21.27;;
76073;SDS011;64776;42.636;24.358;2023-05-01T03:42:05;30.67;;;16.02;;
76073;SDS011;64776;42.636;24.358;2023-05-01T03:45:06;52.03;;;34.40;;
76073;SDS011;64776;42.636;24.358;2023-05-01T03:48:07;30.02;;;16.73;;
76073;SDS011;64776;42.636;24.358;2023-05-01T03:51:10;46.65;;;20.02;;
76073;SDS011;64776;42.636;24.358;2023-05-01T03:54:10;41.78;;;20.63;;
76073;SDS011;64776;42.636;24.358;2023-05-01T03:57:11;46.45;;;20.98;;
76073;SDS011;64776;42.636;24.358;2023-05-01T04:00:12;44.85;;;23.08;;
76073;SDS011;64776;42.636;24.358;2023-05-01T04:03:13;35.30;;;21.35;;
76073;SDS011;64776;42.636;24.358;2023-05-01T04:06:15;61.08;;;33.00;;
76073;SDS011;64776;42.636;24.358;2023-05-01T04:09:16;108.60;;;46.22;;
76073;SDS011;64776;42.636;24.358;2023-05-01T04:12:17;71.70;;;38.88;;
76073;SDS011;64776;42.636;24.358;2023-05-01T04:15:18;41.08;;;20.75;;
76073;SDS011;64776;42.636;24.358;2023-05-01T04:18:19;41.15;;;21.65;;
76073;SDS011;64776;42.636;24.358;2023-05-01T04:21:21;36.47;;;20.10;;
76073;SDS011;64776;42.636;24.358;2023-05-01T04:24:22;47.78;;;23.73;;
76073;SDS011;64776;42.636;24.358;2023-05-01T04:27:23;35.13;;;16.70;;
76073;SDS011;64776;42.636;24.358;2023-05-01T04:30:24;52.53;;;26.42;;
76073;SDS011;64776;42.636;24.358;2023-05-01T04:33:24;51.38;;;27.17;;
76073;SDS011;64776;42.636;24.358;2023-05-01T04:36:27;44.20;;;24.08;;
76073;SDS011;64776;42.636;24.358;2023-05-01T04:39:27;72.97;;;36.13;;
76073;SDS011;64776;42.636;24.358;2023-05-01T04:42:29;58.50;;;30.00;;
76073;SDS011;64776;42.636;24.358;2023-05-01T04:45:30;72.13;;;28.50;;
76073;SDS011;64776;42.636;24.358;2023-05-01T04:48:37;58.85;;;29.45;;
76073;SDS011;64776;42.636;24.358;2023-05-01T04:51:39;36.70;;;20.80;;
76073;SDS011;64776;42.636;24.358;2023-05-01T04:54:40;54.13;;;27.48;;
76073;SDS011;64776;42.636;24.358;2023-05-01T04:57:41;51.15;;;25.33;;
76073;SDS011;64776;42.636;24.358;2023-05-01T05:00:42;40.13;;;24.40;;
76073;SDS011;64776;42.636;24.358;2023-05-01T05:03:42;38.33;;;20.38;;
76073;SDS011;64776;42.636;24.358;2023-05-01T05:06:44;35.63;;;18.52;;
76073;SDS011;64776;42.636;24.358;2023-05-01T05:09:46;28.88;;;15.80;;
76073;SDS011;64776;42.636;24.358;2023-05-01T05:12:47;32.75;;;17.17;;
76073;SDS011;64776;42.636;24.358;2023-05-01T05:15:48;26.23;;;14.18;;
76073;SDS011;64776;42.636;24.358;2023-05-01T05:18:49;20.20;;;10.82;;
76073;SDS011;64776;42.636;24.358;2023-05-01T05:21:51;20.33;;;9.55;;
76073;SDS011;64776;42.636;24.358;2023-05-01T05:24:52;16.85;;;8.80;;
76073;SDS011;64776;42.636;24.358;2023-05-01T05:27:53;22.33;;;11.85;;
76073;SDS011;64776;42.636;24.358;2023-05-01T05:30:54;19.48;;;10.35;;
76073;SDS011;64776;42.636;24.358;2023-05-01T05:33:55;21.35;;;12.10;;
76073;SDS011;64776;42.636;24.358;2023-05-01T05:36:57;16.92;;;9.40;;
76073;SDS011;64776;42.636;24.358;2023-05-01T05:39:58;20.73;;;10.52;;
76073;SDS011;64776;42.636;24.358;2023-05-01T05:42:58;36.55;;;19.73;;
76073;SDS011;64776;42.636;24.358;2023-05-01T05:45:59;34.00;;;18.75;;
76073;SDS011;64776;42.636;24.358;2023-05-01T05:49:00;62.88;;;33.30;;
76073;SDS011;64776;42.636;24.358;2023-05-01T05:52:04;60.50;;;29.95;;
76073;SDS011;64776;42.636;24.358;2023-05-01T05:55:05;90.57;;;48.75;;
76073;SDS011;64776;42.636;24.358;2023-05-01T05:58:06;52.88;;;29.67;;
76073;SDS011;64776;42.636;24.358;2023-05-01T06:01:07;42.03;;;22.08;;
76073;SDS011;64776;42.636;24.358;2023-05-01T06:04:09;42.47;;;23.60;;
76073;SDS011;64776;42.636;24.358;2023-05-01T06:07:11;22.88;;;11.25;;
76073;SDS011;64776;42.636;24.358;2023-05-01T06:10:12;18.90;;;9.63;;
76073;SDS011;64776;42.636;24.358;2023-05-01T06:13:13;12.80;;;7.20;;
76073;SDS011;64776;42.636;24.358;2023-05-01T06:16:14;8.82;;;4.35;;
76073;SDS011;64776;42.636;24.358;2023-05-01T06:19:14;10.32;;;4.97;;
76073;SDS011;64776;42.636;24.358;2023-05-01T06:22:17;13.40;;;6.50;;
76073;SDS011;64776;42.636;24.358;2023-05-01T06:25:18;11.10;;;5.72;;
76073;SDS011;64776;42.636;24.358;2023-05-01T06:28:19;12.68;;;5.88;;
76073;SDS011;64776;42.636;24.358;2023-05-01T06:31:19;13.00;;;6.80;;
76073;SDS011;64776;42.636;24.358;2023-05-01T06:34:20;11.15;;;4.53;;
76073;SDS011;64776;42.636;24.358;2023-05-01T06:37:22;9.48;;;3.17;;
76073;SDS011;64776;42.636;24.358;2023-05-01T06:40:23;12.57;;;4.80;;
76073;SDS011;64776;42.636;24.358;2023-05-01T06:43:24;9.55;;;4.00;;
76073;SDS011;64776;42.636;24.358;2023-05-01T06:46:25;7.88;;;2.53;;
76073;SDS011;64776;42.636;24.358;2023-05-01T06:49:26;9.35;;;4.22;;
76073;SDS011;64776;42.636;24.358;2023-05-01T06:52:28;10.50;;;5.18;;
76073;SDS011;64776;42.636;24.358;2023-05-01T06:55:29;14.80;;;6.57;;
76073;SDS011;64776;42.636;24.358;2023-05-01T06:58:30;15.88;;;6.70;;
76073;SDS011;64776;42.636;24.358;2023-05-01T07:01:31;19.38;;;7.93;;
76073;SDS011;64776;42.636;24.358;2023-05-01T07:04:31;14.18;;;5.38;;
76073;SDS011;64776;42.636;24.358;2023-05-01T07:07:34;7.85;;;3.35;;
76073;SDS011;64776;42.636;24.358;2023-05-01T07:10:34;8.10;;;3.45;;
76073;SDS011;64776;42.636;24.358;2023-05-01T07:13:35;6.72;;;2.33;;
76073;SDS011;64776;42.636;24.358;2023-05-01T07:16:36;21.40;;;9.70;;
76073;SDS011;64776;42.636;24.358;2023-05-01T07:19:37;10.18;;;4.22;;
76073;SDS011;64776;42.636;24.358;2023-05-01T07:22:39;6.65;;;2.15;;
76073;SDS011;64776;42.636;24.358;2023-05-01T07:25:40;6.10;;;2.78;;
76073;SDS011;64776;42.636;24.358;2023-05-01T07:28:41;11.25;;;4.20;;
76073;SDS011;64776;42.636;24.358;2023-05-01T07:31:41;10.52;;;4.80;;
76073;SDS011;64776;42.636;24.358;2023-05-01T07:34:42;12.93;;;6.07;;
76073;SDS011;64776;42.636;24.358;2023-05-01T07:37:44;21.00;;;9.30;;
76073;SDS011;64776;42.636;24.358;2023-05-01T07:40:47;191.70;;;86.95;;
76073;SDS011;64776;42.636;24.358;2023-05-01T07:43:51;23.95;;;8.57;;
76073;SDS011;64776;42.636;24.358;2023-05-01T07:46:52;57.30;;;27.25;;
76073;SDS011;64776;42.636;24.358;2023-05-01T07:49:52;25.35;;;10.70;;
76073;SDS011;64776;42.636;24.358;2023-05-01T07:52:55;11.27;;;5.05;;
76073;SDS011;64776;42.636;24.358;2023-05-01T07:56:03;9.98;;;4.22;;
76073;SDS011;64776;42.636;24.358;2023-05-01T07:59:04;8.90;;;3.58;;
76073;SDS011;64776;42.636;24.358;2023-05-01T08:02:05;15.60;;;6.50;;
76073;SDS011;64776;42.636;24.358;2023-05-01T08:05:06;12.10;;;4.32;;
76073;SDS011;64776;42.636;24.358;2023-05-01T08:08:09;7.68;;;3.25;;
76073;SDS011;64776;42.636;24.358;2023-05-01T08:11:10;12.18;;;5.43;;
76073;SDS011;64776;42.636;24.358;2023-05-01T08:14:11;16.55;;;6.43;;
76073;SDS011;64776;42.636;24.358;2023-05-01T08:17:11;13.23;;;4.63;;
76073;SDS011;64776;42.636;24.358;2023-05-01T08:20:12;9.68;;;4.22;;
76073;SDS011;64776;42.636;24.358;2023-05-01T08:23:15;8.55;;;3.22;;
76073;SDS011;64776;42.636;24.358;2023-05-01T08:26:16;9.77;;;4.28;;
76073;SDS011;64776;42.636;24.358;2023-05-01T08:29:17;8.40;;;3.72;;
76073;SDS011;64776;42.636;24.358;2023-05-01T08:32:17;9.05;;;3.85;;
76073;SDS011;64776;42.636;24.358;2023-05-01T08:35:18;9.88;;;2.92;;
76073;SDS011;64776;42.636;24.358;2023-05-01T08:38:20;9.60;;;4.10;;
76073;SDS011;64776;42.636;24.358;2023-05-01T08:41:22;13.52;;;5.03;;
76073;SDS011;64776;42.636;24.358;2023-05-01T08:44:26;5.70;;;2.05;;
76073;SDS011;64776;42.636;24.358;2023-05-01T08:47:27;8.60;;;3.35;;
76073;SDS011;64776;42.636;24.358;2023-05-01T08:50:29;7.47;;;2.88;;
76073;SDS011;64776;42.636;24.358;2023-05-01T08:53:34;9.98;;;4.10;;
76073;SDS011;64776;42.636;24.358;2023-05-01T08:56:37;12.88;;;7.30;;
76073;SDS011;64776;42.636;24.358;2023-05-01T08:59:39;8.15;;;4.00;;
76073;SDS011;64776;42.636;24.358;2023-05-01T09:02:40;9.05;;;4.30;;
76073;SDS011;64776;42.636;24.358;2023-05-01T09:05:43;10.15;;;4.90;;
76073;SDS011;64776;42.636;24.358;2023-05-01T09:08:45;9.05;;;3.58;;
76073;SDS011;64776;42.636;24.358;2023-05-01T09:11:46;47.08;;;9.68;;
76073;SDS011;64776;42.636;24.358;2023-05-01T09:14:47;9.68;;;4.15;;
76073;SDS011;64776;42.636;24.358;2023-05-01T09:17:48;9.68;;;4.15;;
76073;SDS011;64776;42.636;24.358;2023-05-01T09:20:50;15.45;;;7.65;;
76073;SDS011;64776;42.636;24.358;2023-05-01T09:23:53;18.90;;;8.38;;
76073;SDS011;64776;42.636;24.358;2023-05-01T09:26:54;8.98;;;4.55;;
76073;SDS011;64776;42.636;24.358;2023-05-01T09:29:55;15.52;;;6.93;;
76073;SDS011;64776;42.636;24.358;2023-05-01T09:33:02;8.77;;;4.63;;
76073;SDS011;64776;42.636;24.358;2023-05-01T09:36:04;5.45;;;2.75;;
76073;SDS011;64776;42.636;24.358;2023-05-01T09:39:07;5.65;;;1.85;;
76073;SDS011;64776;42.636;24.358;2023-05-01T09:42:08;15.63;;;7.03;;
76073;SDS011;64776;42.636;24.358;2023-05-01T09:45:11;7.53;;;3.60;;
76073;SDS011;64776;42.636;24.358;2023-05-01T09:48:12;8.57;;;3.58;;
76073;SDS011;64776;42.636;24.358;2023-05-01T09:51:20;7.28;;;3.60;;
76073;SDS011;64776;42.636;24.358;2023-05-01T09:54:26;7.30;;;2.90;;
76073;SDS011;64776;42.636;24.358;2023-05-01T09:57:36;9.63;;;2.53;;
76073;SDS011;64776;42.636;24.358;2023-05-01T10:00:46;7.40;;;2.80;;
76073;SDS011;64776;42.636;24.358;2023-05-01T10:03:51;18.20;;;10.70;;
76073;SDS011;64776;42.636;24.358;2023-05-01T10:06:53;5.57;;;2.13;;
76073;SDS011;64776;42.636;24.358;2023-05-01T10:09:55;7.00;;;3.05;;
76073;SDS011;64776;42.636;24.358;2023-05-01T10:12:57;5.68;;;2.42;;
76073;SDS011;64776;42.636;24.358;2023-05-01T10:16:26;7.38;;;1.83;;
76073;SDS011;64776;42.636;24.358;2023-05-01T10:19:28;5.15;;;2.13;;
76073;SDS011;64776;42.636;24.358;2023-05-01T10:22:29;7.28;;;2.80;;
76073;SDS011;64776;42.636;24.358;2023-05-01T10:25:31;4.90;;;2.30;;
76073;SDS011;64776;42.636;24.358;2023-05-01T10:28:32;6.88;;;2.90;;
76073;SDS011;64776;42.636;24.358;2023-05-01T10:31:34;10.73;;;4.78;;
76073;SDS011;64776;42.636;24.358;2023-05-01T10:34:36;4.70;;;2.05;;
76073;SDS011;64776;42.636;24.358;2023-05-01T10:37:43;7.82;;;3.35;;
76073;SDS011;64776;42.636;24.358;2023-05-01T10:40:48;13.95;;;6.38;;
76073;SDS011;64776;42.636;24.358;2023-05-01T10:43:51;27.17;;;10.95;;
76073;SDS011;64776;42.636;24.358;2023-05-01T10:54:22;11.07;;;5.13;;
76073;SDS011;64776;42.636;24.358;2023-05-01T11:00:43;12.60;;;6.00;;
76073;SDS011;64776;42.636;24.358;2023-05-01T11:04:05;35.08;;;15.93;;
76073;SDS011;64776;42.636;24.358;2023-05-01T11:07:13;14.68;;;6.85;;
76073;SDS011;64776;42.636;24.358;2023-05-01T11:10:25;9.43;;;4.68;;
76073;SDS011;64776;42.636;24.358;2023-05-01T11:16:56;90.32;;;53.85;;
76073;SDS011;64776;42.636;24.358;2023-05-01T11:19:57;18.75;;;10.40;;
76073;SDS011;64776;42.636;24.358;2023-05-01T11:22:58;25.38;;;14.48;;
76073;SDS011;64776;42.636;24.358;2023-05-01T11:26:02;31.10;;;17.92;;
76073;SDS011;64776;42.636;24.358;2023-05-01T11:29:05;25.45;;;11.75;;
76073;SDS011;64776;42.636;24.358;2023-05-01T11:32:06;55.30;;;26.75;;
76073;SDS011;64776;42.636;24.358;2023-05-01T11:35:07;61.63;;;28.95;;
76073;SDS011;64776;42.636;24.358;2023-05-01T11:38:16;39.70;;;20.33;;
76073;SDS011;64776;42.636;24.358;2023-05-01T11:41:18;31.60;;;17.98;;
76073;SDS011;64776;42.636;24.358;2023-05-01T11:44:21;46.70;;;23.30;;
76073;SDS011;64776;42.636;24.358;2023-05-01T11:47:22;16.70;;;8.98;;
76073;SDS011;64776;42.636;24.358;2023-05-01T11:50:30;10.52;;;5.00;;
76073;SDS011;64776;42.636;24.358;2023-05-01T11:53:31;10.45;;;5.00;;
76073;SDS011;64776;42.636;24.358;2023-05-01T11:56:32;29.65;;;14.85;;
76073;SDS011;64776;42.636;24.358;2023-05-01T11:59:35;16.40;;;7.70;;
76073;SDS011;64776;42.636;24.358;2023-05-01T12:02:36;32.20;;;18.92;;
76073;SDS011;64776;42.636;24.358;2023-05-01T12:05:38;14.60;;;8.45;;
76073;SDS011;64776;42.636;24.358;2023-05-01T12:08:43;22.40;;;11.80;;
76073;SDS011;64776;42.636;24.358;2023-05-01T12:11:47;9.00;;;4.22;;
76073;SDS011;64776;42.636;24.358;2023-05-01T12:26:21;35.95;;;21.95;;
76073;SDS011;64776;42.636;24.358;2023-05-01T12:29:23;41.55;;;21.08;;
76073;SDS011;64776;42.636;24.358;2023-05-01T12:32:28;14.32;;;6.57;;
76073;SDS011;64776;42.636;24.358;2023-05-01T12:35:30;9.73;;;4.05;;
76073;SDS011;64776;42.636;24.358;2023-05-01T12:38:31;8.75;;;3.40;;
76073;SDS011;64776;42.636;24.358;2023-05-01T12:41:37;8.60;;;4.75;;
76073;SDS011;64776;42.636;24.358;2023-05-01T12:44:40;12.00;;;6.50;;
76073;SDS011;64776;42.636;24.358;2023-05-01T12:47:42;28.52;;;15.18;;
76073;SDS011;64776;42.636;24.358;2023-05-01T12:50:44;9.00;;;4.15;;
76073;SDS011;64776;42.636;24.358;2023-05-01T12:53:45;20.50;;;10.95;;
76073;SDS011;64776;42.636;24.358;2023-05-01T12:56:48;9.65;;;4.18;;
76073;SDS011;64776;42.636;24.358;2023-05-01T12:59:56;7.85;;;3.45;;
76073;SDS011;64776;42.636;24.358;2023-05-01T13:03:01;10.32;;;4.55;;
76073;SDS011;64776;42.636;24.358;2023-05-01T13:06:04;8.07;;;3.63;;
76073;SDS011;64776;42.636;24.358;2023-05-01T13:09:06;14.73;;;7.05;;
76073;SDS011;64776;42.636;24.358;2023-05-01T13:12:11;10.50;;;5.63;;
76073;SDS011;64776;42.636;24.358;2023-05-01T13:15:18;11.75;;;6.68;;
76073;SDS011;64776;42.636;24.358;2023-05-01T13:18:19;13.35;;;7.20;;
76073;SDS011;64776;42.636;24.358;2023-05-01T13:21:21;12.18;;;7.93;;
76073;SDS011;64776;42.636;24.358;2023-05-01T13:24:23;8.75;;;3.03;;
76073;SDS011;64776;42.636;24.358;2023-05-01T13:27:25;4.65;;;1.52;;
76073;SDS011;64776;42.636;24.358;2023-05-01T13:30:30;5.90;;;1.73;;
76073;SDS011;64776;42.636;24.358;2023-05-01T13:33:31;5.75;;;2.00;;
76073;SDS011;64776;42.636;24.358;2023-05-01T13:36:32;7.28;;;2.28;;
76073;SDS011;64776;42.636;24.358;2023-05-01T13:39:33;5.88;;;2.20;;
76073;SDS011;64776;42.636;24.358;2023-05-01T13:42:35;6.20;;;1.92;;
76073;SDS011;64776;42.636;24.358;2023-05-01T13:45:40;8.45;;;2.70;;
76073;SDS011;64776;42.636;24.358;2023-05-01T13:48:41;4.53;;;1.63;;
76073;SDS011;64776;42.636;24.358;2023-05-01T13:51:42;5.20;;;1.30;;
76073;SDS011;64776;42.636;24.358;2023-05-01T13:55:09;8.80;;;3.28;;
76073;SDS011;64776;42.636;24.358;2023-05-01T13:58:12;7.50;;;3.38;;
76073;SDS011;64776;42.636;24.358;2023-05-01T14:01:13;6.07;;;2.63;;
76073;SDS011;64776;42.636;24.358;2023-05-01T14:04:15;12.23;;;5.13;;
76073;SDS011;64776;42.636;24.358;2023-05-01T14:07:17;6.80;;;2.00;;
76073;SDS011;64776;42.636;24.358;2023-05-01T14:10:19;17.42;;;8.50;;
76073;SDS011;64776;42.636;24.358;2023-05-01T14:13:23;10.40;;;5.32;;
76073;SDS011;64776;42.636;24.358;2023-05-01T14:16:26;15.55;;;10.30;;
76073;SDS011;64776;42.636;24.358;2023-05-01T14:19:27;14.98;;;5.32;;
76073;SDS011;64776;42.636;24.358;2023-05-01T14:22:28;17.55;;;13.48;;
76073;SDS011;64776;42.636;24.358;2023-05-01T14:25:31;6.20;;;2.88;;
76073;SDS011;64776;42.636;24.358;2023-05-01T14:28:34;9.27;;;4.53;;
76073;SDS011;64776;42.636;24.358;2023-05-01T14:31:40;4.90;;;2.08;;
76073;SDS011;64776;42.636;24.358;2023-05-01T14:34:41;47.92;;;37.35;;
76073;SDS011;64776;42.636;24.358;2023-05-01T14:37:42;5.95;;;1.95;;
76073;SDS011;64776;42.636;24.358;2023-05-01T14:40:43;7.88;;;3.67;;
76073;SDS011;64776;42.636;24.358;2023-05-01T14:43:46;11.32;;;6.63;;
76073;SDS011;64776;42.636;24.358;2023-05-01T14:46:47;13.15;;;7.57;;
76073;SDS011;64776;42.636;24.358;2023-05-01T14:49:50;13.98;;;8.93;;
76073;SDS011;64776;42.636;24.358;2023-05-01T14:52:54;61.03;;;36.30;;
76073;SDS011;64776;42.636;24.358;2023-05-01T14:58:57;4.38;;;1.33;;
76073;SDS011;64776;42.636;24.358;2023-05-01T15:01:58;2.95;;;1.10;;
76073;SDS011;64776;42.636;24.358;2023-05-01T15:04:59;4.60;;;2.25;;
76073;SDS011;64776;42.636;24.358;2023-05-01T15:07:59;4.80;;;1.50;;
76073;SDS011;64776;42.636;24.358;2023-05-01T15:11:00;5.93;;;2.65;;
76073;SDS011;64776;42.636;24.358;2023-05-01T15:14:02;3.92;;;1.52;;
76073;SDS011;64776;42.636;24.358;2023-05-01T15:17:03;7.60;;;3.03;;
76073;SDS011;64776;42.636;24.358;2023-05-01T15:20:04;11.30;;;5.70;;
76073;SDS011;64776;42.636;24.358;2023-05-01T15:23:06;9.40;;;5.63;;
76073;SDS011;64776;42.636;24.358;2023-05-01T15:26:07;9.88;;;5.40;;
76073;SDS011;64776;42.636;24.358;2023-05-01T15:29:09;5.70;;;2.25;;
76073;SDS011;64776;42.636;24.358;2023-05-01T15:32:10;9.27;;;3.30;;
76073;SDS011;64776;42.636;24.358;2023-05-01T15:35:12;5.75;;;2.13;;
76073;SDS011;64776;42.636;24.358;2023-05-01T15:38:13;8.48;;;4.22;;
76073;SDS011;64776;42.636;24.358;2023-05-01T15:41:15;11.93;;;4.68;;
76073;SDS011;64776;42.636;24.358;2023-05-01T15:44:17;20.10;;;7.60;;
76073;SDS011;64776;42.636;24.358;2023-05-01T15:47:18;16.27;;;5.45;;
76073;SDS011;64776;42.636;24.358;2023-05-01T15:50:18;18.58;;;9.02;;
76073;SDS011;64776;42.636;24.358;2023-05-01T15:53:19;19.30;;;9.32;;
76073;SDS011;64776;42.636;24.358;2023-05-01T15:56:20;14.55;;;7.32;;
76073;SDS011;64776;42.636;24.358;2023-05-01T15:59:22;13.50;;;6.40;;
76073;SDS011;64776;42.636;24.358;2023-05-01T16:02:23;9.07;;;4.55;;
76073;SDS011;64776;42.636;24.358;2023-05-01T16:05:24;12.70;;;6.18;;
76073;SDS011;64776;42.636;24.358;2023-05-01T16:08:24;14.13;;;8.32;;
76073;SDS011;64776;42.636;24.358;2023-05-01T16:11:25;7.75;;;2.25;;
76073;SDS011;64776;42.636;24.358;2023-05-01T16:14:28;5.15;;;2.70;;
76073;SDS011;64776;42.636;24.358;2023-05-01T16:17:29;9.15;;;3.45;;
76073;SDS011;64776;42.636;24.358;2023-05-01T16:20:33;14.15;;;5.43;;
76073;SDS011;64776;42.636;24.358;2023-05-01T16:23:38;9.68;;;4.22;;
76073;SDS011;64776;42.636;24.358;2023-05-01T16:26:39;9.88;;;5.38;;
76073;SDS011;64776;42.636;24.358;2023-05-01T16:29:41;13.52;;;7.35;;
76073;SDS011;64776;42.636;24.358;2023-05-01T16:32:42;26.45;;;13.57;;
76073;SDS011;64776;42.636;24.358;2023-05-01T16:35:45;33.80;;;16.90;;
76073;SDS011;64776;42.636;24.358;2023-05-01T16:38:46;28.98;;;15.43;;
76073;SDS011;64776;42.636;24.358;2023-05-01T16:41:47;58.80;;;24.65;;
76073;SDS011;64776;42.636;24.358;2023-05-01T16:44:51;126.15;;;45.72;;
76073;SDS011;64776;42.636;24.358;2023-05-01T16:47:52;303.30;;;97.32;;
76073;SDS011;64776;42.636;24.358;2023-05-01T16:50:52;187.63;;;62.67;;
76073;SDS011;64776;42.636;24.358;2023-05-01T16:53:53;55.95;;;24.30;;
76073;SDS011;64776;42.636;24.358;2023-05-01T16:56:54;97.60;;;40.83;;
76073;SDS011;64776;42.636;24.358;2023-05-01T16:59:56;51.55;;;26.88;;
76073;SDS011;64776;42.636;24.358;2023-05-01T17:02:57;43.70;;;20.88;;
76073;SDS011;64776;42.636;24.358;2023-05-01T17:05:57;16.80;;;8.73;;
76073;SDS011;64776;42.636;24.358;2023-05-01T17:08:58;28.13;;;12.57;;
76073;SDS011;64776;42.636;24.358;2023-05-01T17:11:59;82.35;;;36.25;;
76073;SDS011;64776;42.636;24.358;2023-05-01T17:15:01;64.40;;;30.48;;
76073;SDS011;64776;42.636;24.358;2023-05-01T17:18:03;53.92;;;27.05;;
76073;SDS011;64776;42.636;24.358;2023-05-01T17:21:03;44.35;;;22.10;;
76073;SDS011;64776;42.636;24.358;2023-05-01T17:24:04;60.50;;;28.08;;
76073;SDS011;64776;42.636;24.358;2023-05-01T17:27:05;22.63;;;12.60;;
76073;SDS011;64776;42.636;24.358;2023-05-01T17:30:08;34.60;;;16.88;;
76073;SDS011;64776;42.636;24.358;2023-05-01T17:33:09;50.50;;;26.67;;
76073;SDS011;64776;42.636;24.358;2023-05-01T17:36:10;45.00;;;21.17;;
76073;SDS011;64776;42.636;24.358;2023-05-01T17:39:10;45.33;;;24.63;;
76073;SDS011;64776;42.636;24.358;2023-05-01T17:42:11;35.47;;;19.85;;
76073;SDS011;64776;42.636;24.358;2023-05-01T17:45:13;51.83;;;30.45;;
76073;SDS011;64776;42.636;24.358;2023-05-01T17:48:14;47.60;;;26.15;;
76073;SDS011;64776;42.636;24.358;2023-05-01T17:51:15;30.45;;;15.88;;
76073;SDS011;64776;42.636;24.358;2023-05-01T17:54:16;35.38;;;17.00;;
76073;SDS011;64776;42.636;24.358;2023-05-01T17:57:16;61.10;;;32.72;;
76073;SDS011;64776;42.636;24.358;2023-05-01T18:00:19;62.60;;;32.03;;
76073;SDS011;64776;42.636;24.358;2023-05-01T18:03:20;57.95;;;29.73;;
76073;SDS011;64776;42.636;24.358;2023-05-01T18:06:21;38.67;;;18.13;;
76073;SDS011;64776;42.636;24.358;2023-05-01T18:09:22;30.85;;;14.90;;
76073;SDS011;64776;42.636;24.358;2023-05-01T18:12:23;67.25;;;31.30;;
76073;SDS011;64776;42.636;24.358;2023-05-01T18:15:25;75.85;;;37.70;;
76073;SDS011;64776;42.636;24.358;2023-05-01T18:18:26;53.38;;;27.98;;
76073;SDS011;64776;42.636;24.358;2023-05-01T18:21:27;52.80;;;26.58;;
76073;SDS011;64776;42.636;24.358;2023-05-01T18:24:28;57.72;;;27.70;;